sensor_id;sensor_type;location;lat;lon;timestamp;P1;durP1;ratioP1;P2;durP2;ratioP2
19235;SDS011;9752;54.270;12.470;2023-10-09T00:04:14;10.37;;;9.87;;
19235;SDS011;9752;54.270;12.470;2023-10-09T00:09:16;9.67;;;9.17;;
19235;SDS011;9752;54.270;12.470;2023-10-09T00:14:29;10.40;;;10.00;;
19235;SDS011;9752;54.270;12.470;2023-10-09T00:19:33;11.30;;;10.80;;
19235;SDS011;9752;54.270;12.470;2023-10-09T00:24:37;10.73;;;10.13;;
19235;SDS011;9752;54.270;12.470;2023-10-09T00:29:46;10.23;;;9.80;;
19235;SDS011;9752;54.270;12.470;2023-10-09T00:34:49;10.60;;;10.10;;
19235;SDS011;9752;54.270;12.470;2023-10-09T00:39:51;11.37;;;10.80;;
19235;SDS011;9752;54.270;12.470;2023-10-09T00:44:58;11.70;;;10.90;;
19235;SDS011;9752;54.270;12.470;2023-10-09T00:50:05;10.40;;;9.97;;
19235;SDS011;9752;54.270;12.470;2023-10-09T00:55:11;10.20;;;9.80;;
19235;SDS011;9752;54.270;12.470;2023-10-09T01:00:16;9.90;;;9.50;;
19235;SDS011;9752;54.270;12.470;2023-10-09T01:05:32;10.07;;;9.47;;
19235;SDS011;9752;54.270;12.470;2023-10-09T01:10:43;9.70;;;9.30;;
19235;SDS011;9752;54.270;12.470;2023-10-09T01:15:52;9.50;;;9.00;;
19235;SDS011;9752;54.270;12.470;2023-10-09T01:20:54;10.50;;;9.80;;
19235;SDS011;9752;54.270;12.470;2023-10-09T01:25:58;9.43;;;9.00;;
19235;SDS011;9752;54.270;12.470;2023-10-09T01:30:59;10.20;;;9.60;;
19235;SDS011;9752;54.270;12.470;2023-10-09T01:36:05;9.47;;;9.03;;
19235;SDS011;9752;54.270;12.470;2023-10-09T01:41:12;10.40;;;9.80;;
19235;SDS011;9752;54.270;12.470;2023-10-09T01:46:17;9.37;;;8.90;;
19235;SDS011;9752;54.270;12.470;2023-10-09T01:51:19;8.47;;;8.03;;
19235;SDS011;9752;54.270;12.470;2023-10-09T01:56:23;8.20;;;7.70;;
19235;SDS011;9752;54.270;12.470;2023-10-09T02:01:24;8.50;;;8.00;;
19235;SDS011;9752;54.270;12.470;2023-10-09T02:06:27;8.33;;;7.83;;
19235;SDS011;9752;54.270;12.470;2023-10-09T02:11:33;7.07;;;6.77;;
19235;SDS011;9752;54.270;12.470;2023-10-09T02:16:41;7.00;;;6.70;;
19235;SDS011;9752;54.270;12.470;2023-10-09T02:21:43;6.50;;;6.20;;
19235;SDS011;9752;54.270;12.470;2023-10-09T02:26:47;6.23;;;5.93;;
19235;SDS011;9752;54.270;12.470;2023-10-09T02:32:02;6.30;;;6.00;;
19235;SDS011;9752;54.270;12.470;2023-10-09T02:37:14;6.73;;;6.23;;
19235;SDS011;9752;54.270;12.470;2023-10-09T02:42:24;5.80;;;5.50;;
19235;SDS011;9752;54.270;12.470;2023-10-09T02:47:28;5.90;;;5.40;;
19235;SDS011;9752;54.270;12.470;2023-10-09T02:52:31;5.80;;;5.30;;
19235;SDS011;9752;54.270;12.470;2023-10-09T02:57:41;5.73;;;5.30;;
19235;SDS011;9752;54.270;12.470;2023-10-09T03:02:45;5.37;;;5.07;;
19235;SDS011;9752;54.270;12.470;2023-10-09T03:07:49;5.97;;;5.57;;
19235;SDS011;9752;54.270;12.470;2023-10-09T03:12:54;5.63;;;5.27;;
19235;SDS011;9752;54.270;12.470;2023-10-09T03:17:56;6.20;;;5.77;;
19235;SDS011;9752;54.270;12.470;2023-10-09T03:22:59;5.90;;;5.60;;
19235;SDS011;9752;54.270;12.470;2023-10-09T03:28:03;5.90;;;5.47;;
19235;SDS011;9752;54.270;12.470;2023-10-09T03:33:06;5.80;;;5.00;;
19235;SDS011;9752;54.270;12.470;2023-10-09T03:38:09;5.50;;;5.10;;
19235;SDS011;9752;54.270;12.470;2023-10-09T03:43:18;6.53;;;5.53;;
19235;SDS011;9752;54.270;12.470;2023-10-09T03:48:21;8.73;;;5.83;;
19235;SDS011;9752;54.270;12.470;2023-10-09T03:53:26;6.20;;;5.63;;
19235;SDS011;9752;54.270;12.470;2023-10-09T03:58:31;6.00;;;5.60;;
19235;SDS011;9752;54.270;12.470;2023-10-09T04:03:34;5.77;;;5.43;;
19235;SDS011;9752;54.270;12.470;2023-10-09T04:08:37;5.83;;;5.33;;
19235;SDS011;9752;54.270;12.470;2023-10-09T04:13:46;6.20;;;5.70;;
19235;SDS011;9752;54.270;12.470;2023-10-09T04:18:47;5.47;;;5.10;;
19235;SDS011;9752;54.270;12.470;2023-10-09T04:23:49;5.40;;;5.10;;
19235;SDS011;9752;54.270;12.470;2023-10-09T04:29:10;5.10;;;4.60;;
19235;SDS011;9752;54.270;12.470;2023-10-09T04:34:18;5.30;;;4.80;;
19235;SDS011;9752;54.270;12.470;2023-10-09T04:39:23;5.70;;;5.20;;
19235;SDS011;9752;54.270;12.470;2023-10-09T04:44:47;6.57;;;6.03;;
19235;SDS011;9752;54.270;12.470;2023-10-09T04:50:20;5.43;;;5.13;;
19235;SDS011;9752;54.270;12.470;2023-10-09T04:55:39;6.03;;;5.53;;
19235;SDS011;9752;54.270;12.470;2023-10-09T05:00:45;7.17;;;5.23;;
19235;SDS011;9752;54.270;12.470;2023-10-09T05:06:03;5.77;;;5.37;;
19235;SDS011;9752;54.270;12.470;2023-10-09T05:11:22;6.53;;;5.93;;
19235;SDS011;9752;54.270;12.470;2023-10-09T05:16:54;6.77;;;5.87;;
19235;SDS011;9752;54.270;12.470;2023-10-09T05:22:01;6.37;;;5.40;;
19235;SDS011;9752;54.270;12.470;2023-10-09T05:27:16;7.10;;;6.20;;
19235;SDS011;9752;54.270;12.470;2023-10-09T05:32:42;6.60;;;6.00;;
19235;SDS011;9752;54.270;12.470;2023-10-09T05:37:48;6.87;;;6.27;;
19235;SDS011;9752;54.270;12.470;2023-10-09T05:43:01;7.30;;;6.37;;
19235;SDS011;9752;54.270;12.470;2023-10-09T05:48:04;7.93;;;7.17;;
19235;SDS011;9752;54.270;12.470;2023-10-09T05:53:26;14.30;;;10.83;;
19235;SDS011;9752;54.270;12.470;2023-10-09T05:58:48;9.40;;;8.43;;
19235;SDS011;9752;54.270;12.470;2023-10-09T06:04:09;7.30;;;6.60;;
19235;SDS011;9752;54.270;12.470;2023-10-09T06:09:15;6.00;;;5.50;;
19235;SDS011;9752;54.270;12.470;2023-10-09T06:14:34;5.70;;;5.20;;
19235;SDS011;9752;54.270;12.470;2023-10-09T06:19:51;5.00;;;4.60;;
19235;SDS011;9752;54.270;12.470;2023-10-09T06:24:58;6.00;;;5.37;;
19235;SDS011;9752;54.270;12.470;2023-10-09T06:30:09;9.90;;;5.70;;
19235;SDS011;9752;54.270;12.470;2023-10-09T06:35:25;7.07;;;6.47;;
19235;SDS011;9752;54.270;12.470;2023-10-09T06:40:31;7.57;;;6.33;;
19235;SDS011;9752;54.270;12.470;2023-10-09T06:45:52;5.87;;;5.47;;
19235;SDS011;9752;54.270;12.470;2023-10-09T06:51:01;10.63;;;6.40;;
19235;SDS011;9752;54.270;12.470;2023-10-09T06:56:07;5.60;;;5.20;;
19235;SDS011;9752;54.270;12.470;2023-10-09T07:01:23;6.87;;;6.27;;
19235;SDS011;9752;54.270;12.470;2023-10-09T07:06:41;5.37;;;5.00;;
19235;SDS011;9752;54.270;12.470;2023-10-09T07:11:51;5.40;;;4.90;;
19235;SDS011;9752;54.270;12.470;2023-10-09T07:17:04;7.17;;;5.73;;
19235;SDS011;9752;54.270;12.470;2023-10-09T07:22:17;6.80;;;6.37;;
19235;SDS011;9752;54.270;12.470;2023-10-09T07:27:23;7.20;;;6.60;;
19235;SDS011;9752;54.270;12.470;2023-10-09T07:32:39;6.70;;;6.10;;
19235;SDS011;9752;54.270;12.470;2023-10-09T07:37:44;7.53;;;6.10;;
19235;SDS011;9752;54.270;12.470;2023-10-09T07:42:50;7.30;;;6.80;;
19235;SDS011;9752;54.270;12.470;2023-10-09T07:47:53;7.73;;;7.03;;
19235;SDS011;9752;54.270;12.470;2023-10-09T07:53:06;8.00;;;7.40;;
19235;SDS011;9752;54.270;12.470;2023-10-09T07:58:19;6.80;;;6.40;;
19235;SDS011;9752;54.270;12.470;2023-10-09T08:03:25;7.47;;;7.07;;
19235;SDS011;9752;54.270;12.470;2023-10-09T08:08:34;8.93;;;8.20;;
19235;SDS011;9752;54.270;12.470;2023-10-09T08:14:01;9.00;;;8.30;;
19235;SDS011;9752;54.270;12.470;2023-10-09T08:19:03;7.23;;;6.93;;
19235;SDS011;9752;54.270;12.470;2023-10-09T08:24:32;8.70;;;8.03;;
19235;SDS011;9752;54.270;12.470;2023-10-09T08:29:41;8.53;;;7.93;;
19235;SDS011;9752;54.270;12.470;2023-10-09T08:34:47;9.90;;;9.00;;
19235;SDS011;9752;54.270;12.470;2023-10-09T08:39:55;14.97;;;9.70;;
19235;SDS011;9752;54.270;12.470;2023-10-09T08:44:56;8.17;;;7.57;;
19235;SDS011;9752;54.270;12.470;2023-10-09T08:50:00;9.70;;;9.00;;
19235;SDS011;9752;54.270;12.470;2023-10-09T08:55:04;11.57;;;10.50;;
19235;SDS011;9752;54.270;12.470;2023-10-09T09:00:07;9.70;;;8.83;;
19235;SDS011;9752;54.270;12.470;2023-10-09T09:05:16;9.30;;;8.60;;
19235;SDS011;9752;54.270;12.470;2023-10-09T09:10:20;10.27;;;9.37;;
19235;SDS011;9752;54.270;12.470;2023-10-09T09:15:35;9.83;;;9.03;;
19235;SDS011;9752;54.270;12.470;2023-10-09T09:20:40;9.50;;;8.80;;
19235;SDS011;9752;54.270;12.470;2023-10-09T09:25:47;9.00;;;8.40;;
19235;SDS011;9752;54.270;12.470;2023-10-09T09:31:06;10.27;;;9.43;;
19235;SDS011;9752;54.270;12.470;2023-10-09T09:36:13;9.33;;;8.53;;
19235;SDS011;9752;54.270;12.470;2023-10-09T09:41:16;9.97;;;9.20;;
19235;SDS011;9752;54.270;12.470;2023-10-09T09:46:24;9.03;;;8.40;;
19235;SDS011;9752;54.270;12.470;2023-10-09T09:51:33;10.20;;;9.40;;
19235;SDS011;9752;54.270;12.470;2023-10-09T09:56:37;10.97;;;10.03;;
19235;SDS011;9752;54.270;12.470;2023-10-09T10:01:41;9.40;;;8.87;;
19235;SDS011;9752;54.270;12.470;2023-10-09T10:06:45;9.87;;;8.87;;
19235;SDS011;9752;54.270;12.470;2023-10-09T10:11:49;10.17;;;9.40;;
19235;SDS011;9752;54.270;12.470;2023-10-09T10:17:04;11.10;;;10.10;;
19235;SDS011;9752;54.270;12.470;2023-10-09T10:22:23;9.83;;;9.00;;
19235;SDS011;9752;54.270;12.470;2023-10-09T10:27:28;10.70;;;9.80;;
19235;SDS011;9752;54.270;12.470;2023-10-09T10:32:54;11.10;;;10.20;;
19235;SDS011;9752;54.270;12.470;2023-10-09T10:37:57;11.33;;;10.50;;
19235;SDS011;9752;54.270;12.470;2023-10-09T10:43:16;12.10;;;11.40;;
19235;SDS011;9752;54.270;12.470;2023-10-09T10:48:33;13.90;;;11.40;;
19235;SDS011;9752;54.270;12.470;2023-10-09T10:53:38;12.07;;;11.10;;
19235;SDS011;9752;54.270;12.470;2023-10-09T10:58:54;11.87;;;11.07;;
19235;SDS011;9752;54.270;12.470;2023-10-09T11:04:12;12.80;;;11.70;;
19235;SDS011;9752;54.270;12.470;2023-10-09T11:09:14;13.07;;;11.57;;
19235;SDS011;9752;54.270;12.470;2023-10-09T11:14:23;13.43;;;12.40;;
19235;SDS011;9752;54.270;12.470;2023-10-09T11:19:25;12.37;;;11.57;;
19235;SDS011;9752;54.270;12.470;2023-10-09T11:24:31;13.03;;;12.13;;
19235;SDS011;9752;54.270;12.470;2023-10-09T11:29:36;13.13;;;12.33;;
19235;SDS011;9752;54.270;12.470;2023-10-09T11:35:08;12.43;;;11.67;;
19235;SDS011;9752;54.270;12.470;2023-10-09T11:40:27;11.27;;;10.47;;
19235;SDS011;9752;54.270;12.470;2023-10-09T11:45:34;11.43;;;10.53;;
19235;SDS011;9752;54.270;12.470;2023-10-09T11:50:38;12.03;;;11.23;;
19235;SDS011;9752;54.270;12.470;2023-10-09T11:55:44;12.33;;;11.37;;
19235;SDS011;9752;54.270;12.470;2023-10-09T12:00:53;11.07;;;10.37;;
19235;SDS011;9752;54.270;12.470;2023-10-09T12:05:59;10.87;;;10.07;;
19235;SDS011;9752;54.270;12.470;2023-10-09T12:11:04;11.47;;;10.57;;
19235;SDS011;9752;54.270;12.470;2023-10-09T12:16:09;12.73;;;11.83;;
19235;SDS011;9752;54.270;12.470;2023-10-09T12:21:11;12.03;;;11.10;;
19235;SDS011;9752;54.270;12.470;2023-10-09T12:26:16;12.67;;;11.77;;
19235;SDS011;9752;54.270;12.470;2023-10-09T12:31:19;12.67;;;11.60;;
19235;SDS011;9752;54.270;12.470;2023-10-09T12:36:21;12.33;;;11.23;;
19235;SDS011;9752;54.270;12.470;2023-10-09T12:41:23;12.93;;;12.00;;
19235;SDS011;9752;54.270;12.470;2023-10-09T12:46:28;12.77;;;11.77;;
19235;SDS011;9752;54.270;12.470;2023-10-09T12:51:37;12.40;;;11.43;;
19235;SDS011;9752;54.270;12.470;2023-10-09T12:56:40;13.33;;;12.00;;
19235;SDS011;9752;54.270;12.470;2023-10-09T13:01:43;11.43;;;10.63;;
19235;SDS011;9752;54.270;12.470;2023-10-09T13:06:45;12.53;;;11.23;;
19235;SDS011;9752;54.270;12.470;2023-10-09T13:11:47;12.80;;;11.70;;
19235;SDS011;9752;54.270;12.470;2023-10-09T13:16:51;12.83;;;11.80;;
19235;SDS011;9752;54.270;12.470;2023-10-09T13:21:53;11.27;;;10.47;;
19235;SDS011;9752;54.270;12.470;2023-10-09T13:26:55;10.47;;;9.77;;
19235;SDS011;9752;54.270;12.470;2023-10-09T13:32:00;11.63;;;10.63;;
19235;SDS011;9752;54.270;12.470;2023-10-09T13:37:03;11.87;;;10.97;;
19235;SDS011;9752;54.270;12.470;2023-10-09T13:42:11;12.00;;;10.90;;
19235;SDS011;9752;54.270;12.470;2023-10-09T13:47:15;10.07;;;9.13;;
19235;SDS011;9752;54.270;12.470;2023-10-09T13:52:22;10.40;;;9.70;;
19235;SDS011;9752;54.270;12.470;2023-10-09T13:57:23;10.90;;;9.87;;
19235;SDS011;9752;54.270;12.470;2023-10-09T14:02:33;10.00;;;9.30;;
19235;SDS011;9752;54.270;12.470;2023-10-09T14:07:34;10.33;;;9.53;;
19235;SDS011;9752;54.270;12.470;2023-10-09T14:12:37;10.40;;;9.47;;
19235;SDS011;9752;54.270;12.470;2023-10-09T14:17:42;10.53;;;9.67;;
19235;SDS011;9752;54.270;12.470;2023-10-09T14:22:44;10.57;;;9.67;;
19235;SDS011;9752;54.270;12.470;2023-10-09T14:27:46;9.27;;;8.67;;
19235;SDS011;9752;54.270;12.470;2023-10-09T14:32:50;11.60;;;9.43;;
19235;SDS011;9752;54.270;12.470;2023-10-09T14:37:56;10.27;;;9.37;;
19235;SDS011;9752;54.270;12.470;2023-10-09T14:42:57;10.50;;;9.60;;
19235;SDS011;9752;54.270;12.470;2023-10-09T14:48:00;10.07;;;9.27;;
19235;SDS011;9752;54.270;12.470;2023-10-09T14:53:02;11.23;;;10.43;;
19235;SDS011;9752;54.270;12.470;2023-10-09T14:58:04;11.57;;;10.43;;
19235;SDS011;9752;54.270;12.470;2023-10-09T15:03:08;12.97;;;11.53;;
19235;SDS011;9752;54.270;12.470;2023-10-09T15:08:14;10.27;;;9.40;;
19235;SDS011;9752;54.270;12.470;2023-10-09T15:13:17;10.23;;;9.30;;
19235;SDS011;9752;54.270;12.470;2023-10-09T15:18:20;10.70;;;9.80;;
19235;SDS011;9752;54.270;12.470;2023-10-09T15:23:23;11.87;;;9.57;;
19235;SDS011;9752;54.270;12.470;2023-10-09T15:28:24;9.23;;;8.53;;
19235;SDS011;9752;54.270;12.470;2023-10-09T15:33:31;10.47;;;9.47;;
19235;SDS011;9752;54.270;12.470;2023-10-09T15:38:33;10.93;;;10.03;;
19235;SDS011;9752;54.270;12.470;2023-10-09T15:43:36;13.10;;;11.50;;
19235;SDS011;9752;54.270;12.470;2023-10-09T15:48:41;11.83;;;10.73;;
19235;SDS011;9752;54.270;12.470;2023-10-09T15:53:45;13.13;;;11.70;;
19235;SDS011;9752;54.270;12.470;2023-10-09T15:58:47;13.93;;;12.33;;
19235;SDS011;9752;54.270;12.470;2023-10-09T16:03:50;12.00;;;10.90;;
19235;SDS011;9752;54.270;12.470;2023-10-09T16:08:53;13.73;;;11.47;;
19235;SDS011;9752;54.270;12.470;2023-10-09T16:13:55;12.90;;;11.70;;
19235;SDS011;9752;54.270;12.470;2023-10-09T16:18:58;14.90;;;13.50;;
19235;SDS011;9752;54.270;12.470;2023-10-09T16:23:59;15.53;;;13.33;;
19235;SDS011;9752;54.270;12.470;2023-10-09T16:29:01;17.67;;;14.07;;
19235;SDS011;9752;54.270;12.470;2023-10-09T16:34:04;52.90;;;31.23;;
19235;SDS011;9752;54.270;12.470;2023-10-09T16:39:07;26.63;;;20.93;;
19235;SDS011;9752;54.270;12.470;2023-10-09T16:44:18;18.67;;;14.87;;
19235;SDS011;9752;54.270;12.470;2023-10-09T16:49:21;18.07;;;13.47;;
19235;SDS011;9752;54.270;12.470;2023-10-09T16:54:25;13.20;;;11.93;;
19235;SDS011;9752;54.270;12.470;2023-10-09T16:59:27;12.03;;;10.80;;
19235;SDS011;9752;54.270;12.470;2023-10-09T17:04:35;13.63;;;12.30;;
19235;SDS011;9752;54.270;12.470;2023-10-09T17:09:36;15.40;;;12.03;;
19235;SDS011;9752;54.270;12.470;2023-10-09T17:14:41;11.60;;;10.43;;
19235;SDS011;9752;54.270;12.470;2023-10-09T17:19:44;13.00;;;9.97;;
19235;SDS011;9752;54.270;12.470;2023-10-09T17:24:48;12.33;;;11.20;;
19235;SDS011;9752;54.270;12.470;2023-10-09T17:29:50;13.97;;;12.77;;
19235;SDS011;9752;54.270;12.470;2023-10-09T17:34:53;10.83;;;9.70;;
19235;SDS011;9752;54.270;12.470;2023-10-09T17:39:54;14.43;;;9.93;;
19235;SDS011;9752;54.270;12.470;2023-10-09T17:44:56;10.93;;;9.83;;
19235;SDS011;9752;54.270;12.470;2023-10-09T17:50:00;13.23;;;11.77;;
19235;SDS011;9752;54.270;12.470;2023-10-09T17:55:02;15.23;;;13.63;;
19235;SDS011;9752;54.270;12.470;2023-10-09T18:00:07;18.33;;;13.90;;
19235;SDS011;9752;54.270;12.470;2023-10-09T18:05:18;13.53;;;11.93;;
19235;SDS011;9752;54.270;12.470;2023-10-09T18:10:20;17.23;;;12.97;;
19235;SDS011;9752;54.270;12.470;2023-10-09T18:15:22;15.13;;;12.40;;
19235;SDS011;9752;54.270;12.470;2023-10-09T18:20:25;18.13;;;14.57;;
19235;SDS011;9752;54.270;12.470;2023-10-09T18:25:27;14.70;;;13.23;;
19235;SDS011;9752;54.270;12.470;2023-10-09T18:30:29;17.20;;;13.97;;
19235;SDS011;9752;54.270;12.470;2023-10-09T18:35:34;17.73;;;14.13;;
19235;SDS011;9752;54.270;12.470;2023-10-09T18:40:38;18.20;;;16.30;;
19235;SDS011;9752;54.270;12.470;2023-10-09T18:45:42;22.60;;;18.27;;
19235;SDS011;9752;54.270;12.470;2023-10-09T18:50:45;15.33;;;13.73;;
19235;SDS011;9752;54.270;12.470;2023-10-09T18:55:47;19.53;;;15.40;;
19235;SDS011;9752;54.270;12.470;2023-10-09T19:00:49;14.77;;;13.47;;
19235;SDS011;9752;54.270;12.470;2023-10-09T19:05:54;15.07;;;13.57;;
19235;SDS011;9752;54.270;12.470;2023-10-09T19:10:58;17.37;;;13.73;;
19235;SDS011;9752;54.270;12.470;2023-10-09T19:16:00;21.07;;;17.30;;
19235;SDS011;9752;54.270;12.470;2023-10-09T19:21:06;19.77;;;14.97;;
19235;SDS011;9752;54.270;12.470;2023-10-09T19:26:10;20.97;;;16.20;;
19235;SDS011;9752;54.270;12.470;2023-10-09T19:31:14;20.73;;;17.67;;
19235;SDS011;9752;54.270;12.470;2023-10-09T19:36:18;18.57;;;16.20;;
19235;SDS011;9752;54.270;12.470;2023-10-09T19:41:23;23.33;;;17.87;;
19235;SDS011;9752;54.270;12.470;2023-10-09T19:46:25;23.03;;;17.53;;
19235;SDS011;9752;54.270;12.470;2023-10-09T19:51:29;18.90;;;16.90;;
19235;SDS011;9752;54.270;12.470;2023-10-09T19:56:31;19.20;;;17.07;;
19235;SDS011;9752;54.270;12.470;2023-10-09T20:01:33;16.87;;;15.13;;
19235;SDS011;9752;54.270;12.470;2023-10-09T20:06:37;18.63;;;16.53;;
19235;SDS011;9752;54.270;12.470;2023-10-09T20:11:43;22.27;;;17.97;;
19235;SDS011;9752;54.270;12.470;2023-10-09T20:16:45;25.00;;;19.53;;
19235;SDS011;9752;54.270;12.470;2023-10-09T20:21:49;23.27;;;18.90;;
19235;SDS011;9752;54.270;12.470;2023-10-09T20:26:54;25.87;;;20.67;;
19235;SDS011;9752;54.270;12.470;2023-10-09T20:31:55;21.97;;;18.10;;
19235;SDS011;9752;54.270;12.470;2023-10-09T20:36:58;20.07;;;17.07;;
19235;SDS011;9752;54.270;12.470;2023-10-09T20:42:03;26.20;;;19.23;;
19235;SDS011;9752;54.270;12.470;2023-10-09T20:47:05;22.63;;;18.23;;
19235;SDS011;9752;54.270;12.470;2023-10-09T20:52:08;21.77;;;18.97;;
19235;SDS011;9752;54.270;12.470;2023-10-09T20:57:09;24.33;;;20.00;;
19235;SDS011;9752;54.270;12.470;2023-10-09T21:02:14;17.50;;;15.77;;
19235;SDS011;9752;54.270;12.470;2023-10-09T21:07:18;23.70;;;18.37;;
19235;SDS011;9752;54.270;12.470;2023-10-09T21:12:20;23.53;;;18.33;;
19235;SDS011;9752;54.270;12.470;2023-10-09T21:17:22;28.83;;;19.57;;
19235;SDS011;9752;54.270;12.470;2023-10-09T21:22:25;23.00;;;18.90;;
19235;SDS011;9752;54.270;12.470;2023-10-09T21:27:27;23.50;;;17.30;;
19235;SDS011;9752;54.270;12.470;2023-10-09T21:32:29;22.93;;;17.83;;
19235;SDS011;9752;54.270;12.470;2023-10-09T21:37:40;25.47;;;18.77;;
19235;SDS011;9752;54.270;12.470;2023-10-09T21:42:44;22.77;;;18.03;;
19235;SDS011;9752;54.270;12.470;2023-10-09T21:47:46;26.23;;;18.83;;
19235;SDS011;9752;54.270;12.470;2023-10-09T21:52:49;24.67;;;18.57;;
19235;SDS011;9752;54.270;12.470;2023-10-09T21:57:52;21.40;;;17.40;;
19235;SDS011;9752;54.270;12.470;2023-10-09T22:02:55;27.47;;;19.67;;
19235;SDS011;9752;54.270;12.470;2023-10-09T22:07:58;26.53;;;20.20;;
19235;SDS011;9752;54.270;12.470;2023-10-09T22:13:00;26.37;;;19.77;;
19235;SDS011;9752;54.270;12.470;2023-10-09T22:18:02;21.77;;;18.63;;
19235;SDS011;9752;54.270;12.470;2023-10-09T22:23:12;21.00;;;18.00;;
19235;SDS011;9752;54.270;12.470;2023-10-09T22:28:18;21.63;;;17.37;;
19235;SDS011;9752;54.270;12.470;2023-10-09T22:33:20;29.40;;;20.83;;
19235;SDS011;9752;54.270;12.470;2023-10-09T22:38:26;27.63;;;20.67;;
19235;SDS011;9752;54.270;12.470;2023-10-09T22:43:29;26.90;;;20.97;;
19235;SDS011;9752;54.270;12.470;2023-10-09T22:48:31;25.87;;;21.90;;
19235;SDS011;9752;54.270;12.470;2023-10-09T22:53:43;29.60;;;21.67;;
19235;SDS011;9752;54.270;12.470;2023-10-09T22:58:47;30.00;;;22.47;;
19235;SDS011;9752;54.270;12.470;2023-10-09T23:03:52;27.50;;;20.97;;
19235;SDS011;9752;54.270;12.470;2023-10-09T23:09:17;25.93;;;20.87;;
19235;SDS011;9752;54.270;12.470;2023-10-09T23:14:30;29.43;;;22.73;;
19235;SDS011;9752;54.270;12.470;2023-10-09T23:19:32;28.90;;;21.53;;
19235;SDS011;9752;54.270;12.470;2023-10-09T23:24:47;31.43;;;21.23;;
19235;SDS011;9752;54.270;12.470;2023-10-09T23:29:53;33.27;;;21.47;;
19235;SDS011;9752;54.270;12.470;2023-10-09T23:34:55;34.67;;;22.20;;
19235;SDS011;9752;54.270;12.470;2023-10-09T23:39:58;27.67;;;21.23;;
19235;SDS011;9752;54.270;12.470;2023-10-09T23:45:03;33.07;;;23.53;;
19235;SDS011;9752;54.270;12.470;2023-10-09T23:50:06;29.43;;;21.23;;
19235;SDS011;9752;54.270;12.470;2023-10-09T23:55:17;35.07;;;24.80;;
